Time;durP1;ratioP1;P1;durP2;ratioP2;P2;SDS_P1;SDS_P2;PMS_P1;PMS_P2;Temp;Humidity;BMP_temperature;BMP_pressure;BME280_temperature;BME280_humidity;BME280_pressure;Samples;Min_cycle;Max_cycle;Signal;HPM_P1;HPM_P2
2021/12/17 00:00:46;;;;;;;520.45;41.63;;;7.70;99.90;;;;;;4941599;29;20082;-74
2021/12/17 00:03:20;;;;;;;554.10;43.08;;;7.70;99.90;;;;;;4972936;28;20106;-76
2021/12/17 00:08:15;;;;;;;369.92;35.10;;;7.70;99.90;;;;;;4953328;28;20062;-74
2021/12/17 00:10:43;;;;;;;440.73;36.70;;;7.70;99.90;;;;;;4944519;28;20071;-74
2021/12/17 00:13:09;;;;;;;628.60;46.03;;;7.70;99.90;;;;;;4957831;28;20067;-75
2021/12/17 00:15:36;;;;;;;603.67;43.22;;;7.70;99.90;;;;;;4974280;28;20059;-81
2021/12/17 00:18:10;;;;;;;417.23;36.15;;;7.70;99.90;;;;;;4974441;28;20057;-76
2021/12/17 00:52:56;;;;;;;73.18;16.42;;;7.80;99.90;;;;;;4955118;28;20150;-74
2021/12/17 00:55:22;;;;;;;68.18;15.95;;;7.80;99.90;;;;;;4972427;28;20047;-75
2021/12/17 00:57:48;;;;;;;60.55;15.48;;;7.80;99.90;;;;;;4973549;28;20053;-77
2021/12/17 01:00:18;;;;;;;42.67;12.95;;;7.80;99.90;;;;;;4957111;28;20046;-75
2021/12/17 01:02:45;;;;;;;37.60;11.30;;;7.80;99.90;;;;;;4973318;28;20107;-74
2021/12/17 01:05:12;;;;;;;;;;;7.80;99.90;;;;;;4937583;29;20062;-75
2021/12/17 01:07:41;;;;;;;48.95;13.23;;;7.80;99.90;;;;;;4970375;28;19934;-81
2021/12/17 01:10:13;;;;;;;44.97;13.60;;;7.70;99.90;;;;;;4973767;28;20070;-75
2021/12/17 01:12:39;;;;;;;53.70;13.10;;;7.80;99.90;;;;;;4933518;29;20070;-80
2021/12/17 01:15:09;;;;;;;51.92;13.65;;;7.80;99.90;;;;;;4935178;29;20052;-75
2021/12/17 01:17:39;;;;;;;59.63;14.18;;;7.80;99.90;;;;;;4934994;29;20051;-74
2021/12/17 01:20:28;;;;;;;71.85;15.05;;;7.80;99.90;;;;;;4930882;29;20060;-74
2021/12/17 01:36:08;;;;;;;80.47;14.55;;;7.80;99.90;;;;;;4932898;29;20043;-74
2021/12/17 01:44:08;;;;;;;82.45;15.38;;;7.80;99.90;;;;;;4934505;29;20071;-74
2021/12/17 01:46:35;;;;;;;87.47;14.98;;;7.70;99.90;;;;;;4933606;29;20609;-75
2021/12/17 01:55:40;;;;;;;96.82;16.38;;;7.80;99.90;;;;;;4933185;29;20063;-75
2021/12/17 02:00:46;;;;;;;63.25;12.40;;;7.70;99.90;;;;;;4934167;29;20066;-80
2021/12/17 02:03:13;;;;;;;53.05;10.82;;;7.70;99.90;;;;;;4933172;29;20549;-74
2021/12/17 02:05:39;;;;;;;39.25;10.20;;;7.70;99.90;;;;;;4933121;29;20099;-74
2021/12/17 02:08:05;;;;;;;38.92;9.57;;;7.80;99.90;;;;;;4931184;29;20626;-74
2021/12/17 02:21:58;;;;;;;40.47;10.02;;;7.70;99.90;;;;;;4952081;29;20051;-74
2021/12/17 02:32:14;;;;;;;50.53;10.57;;;7.70;99.90;;;;;;4955048;28;20054;-75
2021/12/17 02:37:15;;;;;;;54.40;11.38;;;7.70;99.90;;;;;;4970395;28;20121;-74
2021/12/17 02:40:01;;;;;;;50.17;10.75;;;7.70;99.90;;;;;;4972362;28;20073;-75
2021/12/17 02:47:37;;;;;;;44.63;11.27;;;7.80;99.90;;;;;;4952680;28;20047;-76
2021/12/17 02:50:04;;;;;;;58.38;11.80;;;7.80;99.90;;;;;;4971711;28;20061;-75
2021/12/17 02:52:31;;;;;;;52.05;11.13;;;7.80;99.90;;;;;;4953473;28;20054;-75
2021/12/17 02:54:59;;;;;;;56.90;11.40;;;7.80;99.90;;;;;;4971587;28;20047;-74
2021/12/17 02:57:25;;;;;;;60.30;11.52;;;7.80;99.90;;;;;;4938092;28;20051;-74
2021/12/17 02:59:52;;;;;;;64.32;12.13;;;7.80;99.90;;;;;;4938457;28;20578;-74
2021/12/17 03:02:23;;;;;;;54.33;10.48;;;7.80;99.90;;;;;;4954413;28;20050;-74
2021/12/17 03:04:50;;;;;;;57.30;11.63;;;7.80;99.90;;;;;;4971746;28;20046;-80
2021/12/17 03:07:16;;;;;;;65.53;11.88;;;7.80;99.90;;;;;;4953185;28;20081;-75
2021/12/17 03:10:02;;;;;;;59.53;11.38;;;7.80;99.90;;;;;;4938492;28;20082;-74
2021/12/17 03:25:34;;;;;;;62.78;12.88;;;7.70;99.90;;;;;;4960774;28;20066;-74
2021/12/17 03:28:00;;;;;;;70.50;13.55;;;7.70;99.90;;;;;;4958090;28;20039;-76
2021/12/17 03:30:25;;;;;;;69.65;12.90;;;7.70;99.90;;;;;;4942509;28;20073;-74
2021/12/17 03:32:51;;;;;;;71.88;13.07;;;7.70;99.90;;;;;;4958073;28;20047;-80
2021/12/17 03:35:17;;;;;;;55.75;12.70;;;7.70;99.90;;;;;;4941917;28;20078;-74
2021/12/17 03:37:42;;;;;;;65.55;12.10;;;7.70;99.90;;;;;;4973858;28;20077;-76
2021/12/17 03:40:13;;;;;;;67.68;12.25;;;7.70;99.90;;;;;;4975034;28;20050;-74
2021/12/17 03:42:45;;;;;;;74.80;12.32;;;7.70;99.90;;;;;;4975292;28;20062;-75
2021/12/17 03:45:11;;;;;;;71.25;13.65;;;7.70;99.90;;;;;;4974977;28;20054;-74
2021/12/17 03:47:37;;;;;;;85.70;13.10;;;7.70;99.90;;;;;;4926156;28;20054;-74
2021/12/17 03:50:04;;;;;;;85.38;14.20;;;7.70;99.90;;;;;;4974894;28;20055;-74
2021/12/17 03:52:29;;;;;;;76.65;12.73;;;7.70;99.90;;;;;;4956594;28;20055;-74
2021/12/17 03:54:55;;;;;;;76.63;12.43;;;7.70;99.90;;;;;;4974694;28;20488;-74
2021/12/17 03:57:22;;;;;;;73.65;13.10;;;7.70;99.90;;;;;;4940900;28;20170;-74
2021/12/17 03:59:47;;;;;;;;;;;7.70;99.90;;;;;;4975626;28;20050;-74
2021/12/17 04:02:15;;;;;;;73.88;12.60;;;7.70;99.90;;;;;;4941213;28;19926;-74
2021/12/17 04:04:41;;;;;;;65.38;12.30;;;7.70;99.90;;;;;;4975138;28;20110;-74
2021/12/17 04:07:07;;;;;;;110.47;14.68;;;7.70;99.90;;;;;;4939717;28;20097;-74
2021/12/17 04:09:32;;;;;;;85.00;13.50;;;7.70;99.90;;;;;;4975140;28;20050;-76
2021/12/17 04:12:01;;;;;;;69.72;12.68;;;7.70;99.90;;;;;;4956169;28;20145;-74
2021/12/17 04:14:41;;;;;;;76.70;13.30;;;7.70;99.90;;;;;;4974994;28;20061;-74
2021/12/17 04:17:07;;;;;;;81.20;14.00;;;7.70;99.90;;;;;;4958571;28;20754;-74
2021/12/17 04:19:34;;;;;;;78.80;14.38;;;7.70;99.90;;;;;;4974414;28;20047;-74
2021/12/17 04:22:00;;;;;;;73.65;13.85;;;7.70;99.90;;;;;;4972641;28;20054;-74
2021/12/17 04:24:26;;;;;;;71.03;14.35;;;7.70;99.90;;;;;;4925948;28;20057;-74
2021/12/17 04:26:52;;;;;;;;;;;7.70;99.90;;;;;;4974699;28;20074;-75
2021/12/17 04:29:19;;;;;;;85.72;14.20;;;7.70;99.90;;;;;;4956636;28;19930;-74
2021/12/17 04:31:53;;;;;;;81.05;14.27;;;7.70;99.90;;;;;;4974252;28;20050;-74
2021/12/17 04:34:20;;;;;;;102.47;13.70;;;7.70;99.90;;;;;;4974359;28;20094;-74
2021/12/17 04:36:49;;;;;;;100.97;14.52;;;7.70;99.90;;;;;;4972956;28;20532;-75
2021/12/17 04:39:19;;;;;;;68.88;14.20;;;7.60;99.90;;;;;;4973961;28;20768;-75
2021/12/17 04:41:51;;;;;;;75.05;13.85;;;7.60;99.90;;;;;;4956872;28;20062;-74
2021/12/17 04:44:22;;;;;;;77.60;13.95;;;7.60;99.90;;;;;;4973879;28;20055;-74
2021/12/17 04:57:15;;;;;;;78.65;14.52;;;7.60;99.90;;;;;;4973511;28;20597;-74
2021/12/17 04:57:51;;;;;;;77.38;14.25;;;7.60;99.90;;;;;;4974173;28;20047;-75
2021/12/17 05:00:25;;;;;;;71.45;13.73;;;7.60;99.90;;;;;;4956482;28;20567;-75
2021/12/17 05:02:54;;;;;;;84.97;13.93;;;7.70;99.90;;;;;;4973860;28;20090;-75
2021/12/17 05:05:25;;;;;;;91.45;14.73;;;7.60;99.90;;;;;;4973444;28;20054;-75
2021/12/17 05:07:55;;;;;;;73.13;14.05;;;7.70;99.90;;;;;;4972620;28;20136;-76
2021/12/17 05:18:32;;;;;;;110.03;15.20;;;7.60;99.90;;;;;;4972759;28;20055;-75
2021/12/17 05:21:03;;;;;;;114.50;14.95;;;7.60;99.90;;;;;;4972439;28;20105;-82
2021/12/17 05:23:34;;;;;;;111.88;14.73;;;7.60;99.90;;;;;;4973195;28;20055;-74
2021/12/17 05:26:10;;;;;;;135.13;16.10;;;7.50;99.90;;;;;;4973094;28;20066;-75
2021/12/17 05:28:36;;;;;;;118.93;15.25;;;7.50;99.90;;;;;;4943346;29;20058;-75
2021/12/17 05:31:02;;;;;;;134.73;16.13;;;7.50;99.90;;;;;;4953283;29;20066;-74
2021/12/17 05:33:28;;;;;;;129.68;16.33;;;7.50;99.90;;;;;;4943794;28;20252;-74
2021/12/17 05:35:54;;;;;;;100.78;14.00;;;7.50;99.90;;;;;;4972813;28;20053;-79
2021/12/17 05:38:21;;;;;;;;;;;7.40;99.90;;;;;;4955327;28;20055;-76
2021/12/17 05:40:47;;;;;;;87.40;13.95;;;7.40;99.90;;;;;;4955096;28;19929;-75
2021/12/17 05:43:15;;;;;;;128.25;15.70;;;7.50;99.90;;;;;;4972218;28;20416;-74
2021/12/17 05:45:49;;;;;;;93.07;14.13;;;7.40;99.90;;;;;;4940163;28;20058;-74
2021/12/17 05:48:18;;;;;;;108.50;14.93;;;7.40;99.90;;;;;;4972374;28;20089;-75
2021/12/17 05:50:45;;;;;;;100.28;15.43;;;7.40;99.90;;;;;;4973071;28;20046;-74
2021/12/17 05:53:11;;;;;;;94.00;15.07;;;7.40;99.90;;;;;;4971131;28;20055;-74
2021/12/17 05:55:38;;;;;;;90.90;14.48;;;7.50;99.90;;;;;;4939607;28;20058;-74
2021/12/17 05:58:06;;;;;;;105.30;14.52;;;7.50;99.90;;;;;;4955079;28;20181;-76
2021/12/17 06:00:33;;;;;;;89.57;14.32;;;7.50;99.90;;;;;;4955308;28;20058;-74
2021/12/17 06:03:01;;;;;;;83.53;14.13;;;7.50;99.90;;;;;;4955181;28;20074;-80
2021/12/17 06:05:28;;;;;;;74.68;13.82;;;7.50;99.90;;;;;;4936378;29;20122;-74
2021/12/17 06:07:55;;;;;;;86.20;13.88;;;7.50;99.90;;;;;;4934961;29;20063;-76
2021/12/17 06:10:20;;;;;;;59.17;12.85;;;7.50;99.90;;;;;;4952227;29;20289;-75
2021/12/17 06:12:47;;;;;;;67.28;12.98;;;7.40;99.90;;;;;;4962289;28;20501;-74
2021/12/17 06:15:16;;;;;;;70.28;13.43;;;7.50;99.90;;;;;;4947600;29;20130;-74
2021/12/17 06:17:43;;;;;;;64.90;12.35;;;7.50;99.90;;;;;;4935895;29;20050;-74
2021/12/17 06:20:12;;;;;;;64.15;12.15;;;7.50;99.90;;;;;;4952568;29;20587;-74
2021/12/17 06:22:38;;;;;;;67.07;12.60;;;7.50;99.90;;;;;;4935026;29;20051;-75
2021/12/17 06:25:06;;;;;;;66.45;13.07;;;7.50;99.90;;;;;;4955614;28;20081;-81
2021/12/17 06:27:32;;;;;;;57.22;13.00;;;7.50;99.90;;;;;;4955076;28;20346;-75
2021/12/17 06:29:58;;;;;;;70.78;13.32;;;7.50;99.90;;;;;;4947496;28;20498;-74
2021/12/17 06:32:24;;;;;;;59.35;12.10;;;7.50;99.90;;;;;;4971545;28;20077;-75
2021/12/17 06:34:51;;;;;;;56.05;12.48;;;7.50;99.90;;;;;;4939425;28;20145;-75
2021/12/17 06:37:18;;;;;;;45.97;11.38;;;7.50;99.90;;;;;;4970058;28;20046;-74
2021/12/17 06:39:45;;;;;;;53.83;12.27;;;7.50;99.90;;;;;;4972012;28;20086;-75
2021/12/17 06:42:11;;;;;;;45.53;11.25;;;7.50;99.90;;;;;;4971135;28;20050;-75
2021/12/17 06:44:42;;;;;;;50.15;11.77;;;7.50;99.90;;;;;;4955123;28;20078;-74
2021/12/17 06:47:25;;;;;;;52.55;11.27;;;7.50;99.90;;;;;;4969785;28;20121;-74
2021/12/17 06:49:59;;;;;;;46.42;11.85;;;7.50;99.90;;;;;;4972431;28;20489;-77
2021/12/17 07:05:59;;;;;;;60.42;12.75;;;7.50;99.90;;;;;;4943400;29;20468;-74
2021/12/17 07:10:59;;;;;;;51.25;12.48;;;7.50;99.90;;;;;;4934743;29;20059;-77
2021/12/17 07:33:07;;;;;;;44.85;11.68;;;7.50;99.90;;;;;;4952157;29;20058;-74
2021/12/17 07:35:42;;;;;;;45.40;11.40;;;7.50;99.90;;;;;;4958637;28;20065;-74
2021/12/17 07:40:53;;;;;;;45.63;11.32;;;7.50;99.90;;;;;;4970980;28;20062;-74
2021/12/17 07:43:26;;;;;;;;;;;7.50;99.90;;;;;;4954185;28;20050;-75
2021/12/17 07:45:54;;;;;;;47.30;11.23;;;7.50;99.90;;;;;;4971455;28;19925;-78
2021/12/17 07:48:19;;;;;;;55.13;11.70;;;7.50;99.90;;;;;;4970883;28;20077;-74
2021/12/17 07:50:45;;;;;;;60.10;12.23;;;7.50;99.90;;;;;;4954177;28;20427;-74
2021/12/17 07:53:11;;;;;;;44.97;10.95;;;7.50;99.90;;;;;;4936774;28;20126;-80
2021/12/17 07:55:37;;;;;;;;;;;7.50;99.90;;;;;;4952589;28;20166;-74
2021/12/17 07:58:03;;;;;;;45.33;11.90;;;7.50;99.90;;;;;;4971432;28;20008;-74
2021/12/17 08:00:29;;;;;;;50.75;12.77;;;7.50;99.90;;;;;;4953640;28;20058;-74
2021/12/17 08:02:54;;;;;;;49.78;11.88;;;7.50;99.90;;;;;;4971202;28;20051;-75
2021/12/17 08:05:20;;;;;;;48.58;11.85;;;7.50;99.90;;;;;;4925012;28;20464;-76
2021/12/17 08:07:46;;;;;;;53.30;12.65;;;7.60;99.90;;;;;;4956534;28;20057;-74
2021/12/17 08:10:12;;;;;;;45.60;12.25;;;7.60;99.90;;;;;;4937462;28;20045;-81
2021/12/17 08:12:38;;;;;;;52.92;12.10;;;7.60;99.90;;;;;;4962125;28;20070;-74
2021/12/17 08:15:06;;;;;;;;;;;7.60;99.90;;;;;;4954056;28;20055;-75
2021/12/17 08:25:50;;;;;;;47.67;11.10;;;7.60;99.90;;;;;;4959194;28;20047;-76
2021/12/17 08:28:17;;;;;;;51.38;12.52;;;7.60;99.90;;;;;;4937216;28;20181;-75
2021/12/17 08:30:43;;;;;;;46.15;11.80;;;7.70;99.90;;;;;;4947731;28;20054;-74
2021/12/17 08:33:09;;;;;;;51.88;12.25;;;7.70;99.90;;;;;;4954171;28;20063;-75
2021/12/17 08:35:36;;;;;;;48.55;11.70;;;7.70;99.90;;;;;;4956448;28;20087;-75
2021/12/17 08:38:06;;;;;;;46.08;11.77;;;7.70;99.90;;;;;;4954013;28;20428;-75
2021/12/17 08:40:32;;;;;;;46.92;11.85;;;7.70;99.90;;;;;;4955805;28;20059;-79
2021/12/17 08:42:59;;;;;;;52.58;11.88;;;7.70;99.90;;;;;;4974682;28;20077;-74
2021/12/17 08:45:25;;;;;;;50.05;12.43;;;7.70;99.90;;;;;;4973780;28;20066;-73
2021/12/17 08:47:51;;;;;;;43.17;11.52;;;7.70;99.90;;;;;;4956975;28;20062;-76
2021/12/17 08:50:18;;;;;;;42.35;11.50;;;7.70;99.90;;;;;;4956572;28;20181;-82
2021/12/17 08:52:45;;;;;;;41.42;11.88;;;7.70;99.90;;;;;;4955982;28;20201;-74
2021/12/17 08:55:11;;;;;;;46.35;11.48;;;7.80;99.90;;;;;;4974530;28;20706;-74
2021/12/17 08:57:38;;;;;;;47.85;11.98;;;7.80;99.90;;;;;;4972792;28;20039;-74
2021/12/17 09:00:08;;;;;;;40.90;10.75;;;7.80;99.90;;;;;;4957078;28;20133;-74
2021/12/17 09:02:36;;;;;;;42.05;11.50;;;7.80;99.90;;;;;;4973503;28;20047;-76
2021/12/17 09:05:04;;;;;;;40.22;11.15;;;7.80;99.90;;;;;;4974420;28;20058;-73
2021/12/17 09:07:30;;;;;;;38.28;10.52;;;7.80;99.90;;;;;;4955311;28;20082;-73
2021/12/17 09:09:55;;;;;;;36.58;10.48;;;7.90;99.90;;;;;;4974162;28;20110;-74
2021/12/17 09:12:21;;;;;;;38.72;11.77;;;7.90;99.90;;;;;;4973048;28;20487;-74
2021/12/17 09:14:47;;;;;;;40.25;11.95;;;7.90;99.90;;;;;;4956591;28;20129;-73
2021/12/17 09:17:13;;;;;;;37.63;10.60;;;7.90;99.90;;;;;;4973407;28;20051;-73
2021/12/17 09:19:39;;;;;;;35.40;11.43;;;8.00;99.90;;;;;;4972844;28;20225;-74
2021/12/17 09:22:05;;;;;;;40.05;12.18;;;7.90;99.90;;;;;;4972395;28;20515;-74
2021/12/17 09:24:31;;;;;;;41.58;11.50;;;8.00;99.90;;;;;;4956160;28;20062;-78
2021/12/17 09:26:56;;;;;;;42.72;12.25;;;8.00;99.90;;;;;;4973577;28;20054;-74
2021/12/17 09:29:23;;;;;;;38.35;11.73;;;8.00;99.90;;;;;;4956524;28;20054;-73
2021/12/17 09:31:49;;;;;;;;;;;8.00;99.90;;;;;;4957857;28;20066;-73
2021/12/17 09:34:14;;;;;;;35.38;12.02;;;8.10;99.90;;;;;;4954254;28;19926;-74
2021/12/17 09:36:40;;;;;;;36.28;12.25;;;8.00;99.90;;;;;;4955495;28;20480;-80
2021/12/17 09:39:06;;;;;;;37.20;12.52;;;8.00;99.90;;;;;;4935713;29;20109;-74
2021/12/17 09:41:32;;;;;;;34.03;11.55;;;8.10;99.90;;;;;;4952227;28;20081;-74
2021/12/17 09:43:59;;;;;;;33.88;12.32;;;8.00;99.90;;;;;;4945181;28;20452;-74
2021/12/17 09:46:25;;;;;;;39.67;12.98;;;8.10;99.90;;;;;;4964845;28;20043;-73
2021/12/17 09:48:51;;;;;;;34.45;12.10;;;8.10;99.90;;;;;;4950956;28;20492;-76
2021/12/17 09:51:19;;;;;;;36.55;12.30;;;8.10;99.90;;;;;;4967266;28;20062;-73
2021/12/17 09:53:46;;;;;;;38.05;12.55;;;8.10;99.90;;;;;;4950851;28;20062;-73
2021/12/17 09:56:12;;;;;;;35.72;11.65;;;8.10;99.90;;;;;;4936072;28;20675;-73
2021/12/17 09:58:37;;;;;;;36.42;12.38;;;8.10;99.90;;;;;;4949693;28;20050;-77
2021/12/17 10:01:04;;;;;;;40.10;12.43;;;8.20;99.90;;;;;;4950263;28;20071;-74
2021/12/17 10:03:29;;;;;;;;;;;8.20;99.90;;;;;;4946396;28;20105;-74
2021/12/17 10:05:55;;;;;;;32.85;10.60;;;8.20;99.90;;;;;;4949243;28;19926;-80
2021/12/17 10:08:23;;;;;;;38.70;12.07;;;8.20;99.90;;;;;;4929934;28;20055;-83
2021/12/17 10:10:58;;;;;;;33.05;11.65;;;8.20;99.90;;;;;;4964781;28;20070;-73
2021/12/17 10:13:30;;;;;;;33.33;11.52;;;8.20;99.90;;;;;;4965391;28;20063;-77
2021/12/17 10:16:19;;;;;;;32.00;11.35;;;8.20;99.90;;;;;;4950084;28;20051;-73
2021/12/17 10:18:49;;;;;;;36.78;11.93;;;8.30;99.90;;;;;;4946586;28;20508;-73
2021/12/17 10:21:21;;;;;;;32.95;11.52;;;8.30;99.90;;;;;;4966321;28;20365;-72
2021/12/17 10:23:47;;;;;;;36.95;11.82;;;8.30;99.90;;;;;;4955341;28;20490;-72
2021/12/17 10:26:19;;;;;;;30.13;10.43;;;8.30;99.90;;;;;;4936271;28;20058;-73
2021/12/17 10:28:56;;;;;;;34.35;11.77;;;8.30;99.90;;;;;;4939512;28;20054;-75
2021/12/17 10:31:23;;;;;;;35.40;11.30;;;8.40;99.90;;;;;;4970287;28;20077;-81
2021/12/17 10:33:51;;;;;;;37.50;11.48;;;8.10;99.90;;;;;;4955862;28;20054;-73
2021/12/17 10:36:17;;;;;;;35.83;11.77;;;8.50;99.90;;;;;;4972656;28;20061;-73
2021/12/17 10:38:43;;;;;;;;;;;8.40;99.90;;;;;;4972981;28;20053;-76
2021/12/17 10:41:13;;;;;;;33.00;11.60;;;8.40;99.90;;;;;;4956135;28;19930;-73
2021/12/17 10:43:47;;;;;;;36.22;11.68;;;8.40;99.90;;;;;;4939848;28;20102;-74
2021/12/17 10:48:55;;;;;;;29.20;11.30;;;8.50;99.90;;;;;;4955689;28;20058;-73
2021/12/17 10:54:04;;;;;;;24.33;9.98;;;8.50;99.90;;;;;;4952453;29;20145;-74
2021/12/17 10:56:34;;;;;;;25.05;10.60;;;8.60;99.90;;;;;;4936227;29;20059;-73
2021/12/17 10:59:08;;;;;;;29.08;10.48;;;8.60;99.90;;;;;;4936428;29;20086;-73
2021/12/17 11:01:39;;;;;;;23.08;9.55;;;8.60;99.90;;;;;;4936095;29;20426;-74
2021/12/17 11:04:11;;;;;;;29.08;10.57;;;8.60;99.90;;;;;;4936847;29;20058;-73
2021/12/17 11:06:52;;;;;;;23.90;10.05;;;8.60;99.90;;;;;;4952694;29;20167;-72
2021/12/17 11:09:31;;;;;;;24.23;9.15;;;8.60;99.90;;;;;;4955523;28;20058;-72
2021/12/17 11:12:01;;;;;;;28.83;11.25;;;8.70;99.90;;;;;;4955546;28;20055;-73
2021/12/17 11:14:28;;;;;;;25.15;10.45;;;8.70;99.90;;;;;;4955668;28;20389;-80
2021/12/17 11:16:54;;;;;;;23.77;9.35;;;8.70;99.90;;;;;;4939504;28;20050;-73
2021/12/17 11:19:20;;;;;;;;;;;8.70;99.90;;;;;;4955989;28;20054;-73
2021/12/17 11:21:46;;;;;;;20.85;9.68;;;8.80;99.90;;;;;;4954384;28;20090;-73
2021/12/17 11:24:13;;;;;;;25.70;10.13;;;8.80;99.90;;;;;;4972704;28;20674;-73
2021/12/17 11:26:40;;;;;;;21.30;9.55;;;8.70;99.90;;;;;;4954787;28;20504;-72
2021/12/17 11:29:07;;;;;;;21.60;9.27;;;8.80;99.90;;;;;;4932048;28;20055;-72
2021/12/17 11:31:32;;;;;;;;;;;8.80;99.90;;;;;;4935260;29;20065;-73
2021/12/17 11:34:01;;;;;;;21.92;9.15;;;8.80;99.90;;;;;;4962020;28;19956;-72
2021/12/17 11:36:28;;;;;;;21.58;9.50;;;8.70;99.90;;;;;;4953472;28;20536;-80
2021/12/17 11:39:22;;;;;;;23.00;9.57;;;8.80;99.90;;;;;;4955435;28;20059;-74
2021/12/17 11:42:03;;;;;;;23.83;9.25;;;8.80;99.90;;;;;;4938978;29;20473;-72
2021/12/17 11:44:40;;;;;;;23.38;9.25;;;8.80;99.90;;;;;;4956124;29;20544;-81
2021/12/17 11:47:13;;;;;;;23.90;9.60;;;8.80;99.90;;;;;;4938670;29;20046;-73
2021/12/17 11:49:47;;;;;;;25.17;9.32;;;8.80;99.90;;;;;;4954878;29;20476;-75
2021/12/17 11:52:14;;;;;;;19.58;9.15;;;8.80;99.90;;;;;;4937528;29;20549;-73
2021/12/17 11:54:40;;;;;;;23.08;9.02;;;8.80;99.90;;;;;;4971854;28;20046;-74
2021/12/17 11:57:10;;;;;;;21.38;9.23;;;8.80;99.90;;;;;;4957521;28;20133;-73
2021/12/17 11:59:39;;;;;;;20.63;9.63;;;8.80;99.90;;;;;;4974079;28;20511;-72
2021/12/17 12:02:11;;;;;;;24.67;10.02;;;8.80;99.90;;;;;;4957501;28;20065;-72
2021/12/17 12:04:40;;;;;;;20.73;9.88;;;8.80;99.90;;;;;;4974085;28;20519;-73
2021/12/17 12:07:08;;;;;;;21.25;9.27;;;8.80;99.90;;;;;;4957060;28;20503;-72
2021/12/17 12:10:04;;;;;;;27.35;9.80;;;8.80;99.90;;;;;;4974573;28;20046;-73
2021/12/17 12:12:40;;;;;;;21.63;9.23;;;8.80;99.90;;;;;;4973797;28;20535;-83
2021/12/17 12:15:24;;;;;;;21.38;9.63;;;8.80;99.90;;;;;;4974282;28;20073;-73
2021/12/17 12:18:12;;;;;;;23.73;10.20;;;8.80;99.90;;;;;;4958227;28;20123;-72
2021/12/17 12:23:27;;;;;;;24.20;10.20;;;8.90;99.90;;;;;;4960878;28;20181;-74
2021/12/17 12:26:05;;;;;;;26.83;10.63;;;8.80;99.90;;;;;;4967447;28;20162;-75
2021/12/17 12:28:53;;;;;;;28.60;10.68;;;8.80;99.90;;;;;;4969734;28;20058;-80
2021/12/17 12:31:28;;;;;;;28.33;10.68;;;8.80;99.90;;;;;;4962129;28;20133;-73
2021/12/17 12:34:18;;;;;;;23.67;10.07;;;8.80;99.90;;;;;;4953586;28;20208;-74
2021/12/17 12:36:58;;;;;;;30.65;11.48;;;8.90;99.90;;;;;;4964856;28;20462;-75
2021/12/17 12:39:43;;;;;;;32.65;11.60;;;8.80;99.90;;;;;;4948023;28;20050;-78
2021/12/17 12:42:17;;;;;;;27.73;11.15;;;8.90;99.90;;;;;;4954120;28;20114;-73
2021/12/17 12:44:43;;;;;;;32.20;10.88;;;8.90;99.90;;;;;;4954737;28;20046;-73
2021/12/17 12:47:10;;;;;;;29.23;10.88;;;8.90;99.90;;;;;;4967372;28;20097;-73
2021/12/17 12:49:47;;;;;;;26.10;10.93;;;8.90;99.90;;;;;;4950024;28;20809;-80
2021/12/17 12:52:36;;;;;;;30.20;11.60;;;9.00;99.90;;;;;;4966610;28;20057;-74
2021/12/17 12:55:27;;;;;;;26.90;10.32;;;9.10;99.90;;;;;;4964738;28;20590;-73
2021/12/17 12:57:59;;;;;;;25.30;10.07;;;9.20;99.90;;;;;;4945485;28;20063;-76
2021/12/17 13:00:35;;;;;;;28.77;10.43;;;9.20;99.90;;;;;;4968343;28;20500;-75
2021/12/17 13:03:07;;;;;;;26.90;10.10;;;9.20;99.90;;;;;;4951285;28;20126;-75
2021/12/17 13:05:34;;;;;;;24.08;9.65;;;9.20;99.90;;;;;;4970606;28;20290;-75
2021/12/17 13:08:02;;;;;;;25.27;12.30;;;9.20;99.90;;;;;;4966271;28;20564;-74
2021/12/17 13:10:30;;;;;;;22.52;9.48;;;9.20;99.90;;;;;;4959230;28;20046;-75
2021/12/17 13:14:18;;;;;;;28.13;10.13;;;9.20;99.90;;;;;;4957554;28;20081;-75
2021/12/17 13:16:21;;;;;;;28.70;9.52;;;9.20;99.90;;;;;;4957512;28;20078;-78
2021/12/17 13:21:45;;;;;;;24.07;9.53;;;9.10;99.90;;;;;;4938176;29;20071;-74
2021/12/17 13:24:16;;;;;;;30.05;10.07;;;9.10;99.90;;;;;;4950962;28;20133;-74
2021/12/17 13:26:55;;;;;;;30.58;10.45;;;9.10;99.90;;;;;;4975159;28;20047;-74
2021/12/17 13:29:31;;;;;;;23.40;9.30;;;9.10;99.90;;;;;;4957341;28;20082;-72
2021/12/17 13:32:01;;;;;;;24.90;9.35;;;9.10;99.90;;;;;;4973700;28;20055;-72
2021/12/17 13:34:38;;;;;;;26.25;9.05;;;9.10;99.90;;;;;;4947335;28;20400;-73
2021/12/17 13:37:16;;;;;;;25.67;9.23;;;9.10;99.90;;;;;;4940100;28;20638;-75
2021/12/17 13:40:03;;;;;;;26.23;10.25;;;9.00;99.90;;;;;;4955790;28;20061;-73
2021/12/17 13:42:38;;;;;;;25.02;9.38;;;9.10;99.90;;;;;;4948343;28;20063;-72
2021/12/17 13:45:09;;;;;;;24.23;9.85;;;9.00;99.90;;;;;;4945813;28;20066;-76
2021/12/17 13:47:54;;;;;;;27.35;10.45;;;9.00;99.90;;;;;;4967885;28;20051;-73
2021/12/17 13:50:24;;;;;;;21.88;9.73;;;9.10;99.90;;;;;;4963375;28;20058;-75
2021/12/17 13:52:50;;;;;;;19.50;8.55;;;9.00;99.90;;;;;;4953971;28;20081;-74
2021/12/17 13:55:25;;;;;;;19.15;9.38;;;9.00;99.90;;;;;;4956136;28;20519;-75
2021/12/17 13:57:52;;;;;;;21.98;8.65;;;9.00;99.90;;;;;;4954709;28;20129;-75
2021/12/17 14:00:23;;;;;;;23.63;8.60;;;9.00;99.90;;;;;;4956289;28;20467;-74
2021/12/17 14:02:52;;;;;;;18.00;8.50;;;9.00;99.90;;;;;;4972503;28;20065;-74
2021/12/17 14:05:26;;;;;;;21.63;8.32;;;9.00;99.90;;;;;;4956124;28;20399;-78
2021/12/17 14:07:57;;;;;;;19.90;8.50;;;9.00;99.90;;;;;;4954206;28;20137;-75
2021/12/17 14:10:27;;;;;;;19.60;8.10;;;9.00;99.90;;;;;;4955419;28;20198;-77
2021/12/17 14:12:53;;;;;;;14.60;6.90;;;9.00;99.90;;;;;;4971978;28;20460;-76
2021/12/17 14:15:26;;;;;;;13.75;6.55;;;9.00;99.90;;;;;;4972901;28;20153;-77
2021/12/17 14:17:59;;;;;;;14.57;6.20;;;9.00;99.90;;;;;;4971142;28;20053;-76
2021/12/17 14:20:28;;;;;;;16.42;6.00;;;9.00;99.90;;;;;;4955463;28;20302;-74
2021/12/17 14:23:05;;;;;;;15.25;6.35;;;9.00;99.90;;;;;;4954020;28;20047;-78
2021/12/17 14:25:34;;;;;;;14.13;6.07;;;8.90;99.90;;;;;;4955451;28;20055;-77
2021/12/17 14:28:19;;;;;;;13.27;6.63;;;8.90;99.90;;;;;;4969384;28;20118;-74
2021/12/17 14:31:05;;;;;;;14.00;6.50;;;8.90;99.90;;;;;;4954244;28;20109;-82
2021/12/17 14:33:33;;;;;;;11.68;6.05;;;8.90;99.90;;;;;;4971398;28;20046;-78
2021/12/17 14:36:04;;;;;;;13.68;5.57;;;8.90;99.90;;;;;;4953644;28;20117;-75
2021/12/17 14:38:39;;;;;;;13.07;5.72;;;8.90;99.90;;;;;;4949077;28;20536;-75
2021/12/17 14:41:07;;;;;;;10.73;5.20;;;8.90;99.90;;;;;;4967588;28;20043;-74
2021/12/17 14:43:37;;;;;;;12.68;5.50;;;8.90;99.90;;;;;;4951299;28;20503;-76
2021/12/17 14:48:48;;;;;;;12.13;5.57;;;8.90;99.90;;;;;;4970853;28;20054;-74
2021/12/17 15:04:48;;;;;;;12.55;5.97;;;8.90;99.90;;;;;;4968472;28;20059;-82
2021/12/17 15:07:14;;;;;;;10.43;5.30;;;8.80;99.90;;;;;;4948178;29;20086;-77
2021/12/17 15:09:43;;;;;;;11.55;5.07;;;8.80;99.90;;;;;;4951056;29;20090;-74
2021/12/17 15:12:36;;;;;;;11.27;5.30;;;8.90;99.90;;;;;;4950072;28;20063;-79
2021/12/17 15:15:00;;;;;;;11.68;5.50;;;8.80;99.90;;;;;;4935490;28;20055;-78
2021/12/17 15:17:26;;;;;;;11.07;5.50;;;8.80;99.90;;;;;;4959188;28;20055;-76
2021/12/17 15:19:52;;;;;;;11.02;5.53;;;8.80;99.90;;;;;;4933735;29;20047;-76
2021/12/17 15:22:17;;;;;;;14.20;5.60;;;8.80;99.90;;;;;;4932886;29;20058;-74
2021/12/17 15:24:43;;;;;;;11.80;5.38;;;8.80;99.90;;;;;;4951005;28;20059;-74
2021/12/17 15:27:09;;;;;;;11.90;4.90;;;8.80;99.90;;;;;;4952342;28;20051;-75
2021/12/17 15:29:34;;;;;;;11.48;4.75;;;8.80;99.90;;;;;;4970432;28;20042;-74
2021/12/17 15:32:00;;;;;;;12.90;4.95;;;8.80;99.90;;;;;;4952556;28;20146;-76
2021/12/17 15:34:26;;;;;;;12.07;5.68;;;8.80;99.90;;;;;;4953471;28;20047;-74
2021/12/17 15:36:53;;;;;;;13.20;5.60;;;8.70;99.90;;;;;;4951401;28;20046;-75
2021/12/17 15:39:19;;;;;;;11.65;5.20;;;8.70;99.90;;;;;;4937451;28;20063;-74
2021/12/17 15:41:45;;;;;;;13.75;5.70;;;8.80;99.90;;;;;;4952869;28;20051;-74
2021/12/17 15:44:11;;;;;;;11.82;5.60;;;8.70;99.90;;;;;;4970176;28;20485;-74
2021/12/17 15:46:38;;;;;;;14.60;5.43;;;8.70;99.90;;;;;;4953086;28;20046;-75
2021/12/17 15:49:05;;;;;;;11.65;5.35;;;8.70;99.90;;;;;;4969200;28;20186;-74
2021/12/17 15:51:31;;;;;;;11.15;5.10;;;8.70;99.90;;;;;;4969487;28;20046;-74
2021/12/17 15:53:57;;;;;;;10.70;5.38;;;8.70;99.90;;;;;;4969271;28;20050;-74
2021/12/17 15:56:23;;;;;;;11.60;4.95;;;8.70;99.90;;;;;;4936547;28;20059;-78
2021/12/17 15:58:49;;;;;;;13.18;5.07;;;8.70;99.90;;;;;;4970315;28;20093;-83
2021/12/17 16:01:15;;;;;;;9.85;5.20;;;8.70;99.90;;;;;;4942395;29;20493;-74
2021/12/17 16:03:43;;;;;;;10.80;5.88;;;8.70;99.90;;;;;;4935044;28;20046;-74
2021/12/17 16:06:10;;;;;;;14.27;5.50;;;8.70;99.90;;;;;;4951482;28;20082;-77
2021/12/17 16:08:42;;;;;;;10.48;5.47;;;8.70;99.90;;;;;;4952713;28;20489;-74